• Join FlightAware (Why Join?)
  • Login
  • US Flag 
10:19PM EST


 

Airport Tracker/Info


-or-


 

Live Flight TrackerFlight Track Log ✈ AAL2430 ✈ 28-Mar-2014 ✈ KLAX - KDFW

Flight Track Log - Related Links

Times and Time Zones

All times are in EDT time to prevent confusion due to time zone crossing. See the AAL2430 flight status page for this flight to view local times or setup timezone preferences in your user account.

Time Position Orientation Groundspeed Altitude Reporting Facility
EDT Latitude Longitude Course Direction KTS MPH feet Rate Location/Type
12:01PM 33.9000 -118.4667 88° East 231 266 4,000  Level Southern California TRACON
12:02PM 33.9601 -117.9173 87° East  Level Estimated
12:02PM 33.8333 -118.5000 203° Southwest 281 323 7,500  Level Southern California TRACON
12:03PM 33.9656 -117.7536 88° East  Level Estimated
12:03PM 33.7300 -118.5125 186° South 300 345 12,100  Level Los Angeles Center
12:04PM 33.9708 -117.5899 88° East  Level Estimated
12:04PM 33.6650 -118.4214 131° Southeast 332 382 13,400  Level Los Angeles Center
12:05PM 33.9758 -117.4262 88° East  Level Estimated
12:05PM 33.6442 -118.3078 102° East 351 404 15,600  Level Los Angeles Center
12:06PM 33.9803 -117.2749 88° East  Level Estimated
12:06PM 33.6450 -118.1817 90° East 381 438 17,800  Level Los Angeles Center
12:07PM 33.6447 -118.0431 90° East 400 460 20,600 2,468 Climbing Los Angeles Center
12:08PM 33.6444 -117.8753 90° East 428 493 22,900 1,200 Climbing Los Angeles Center
12:09PM 33.6436 -117.7261 90° East 446 513 23,100 1,056 Climbing Los Angeles Center
12:10PM 33.6431 -117.5769 90° East 447 514 25,100 2,081 Climbing Los Angeles Center
12:11PM 33.6419 -117.4206 90° East 465 535 27,400 2,129 Climbing Los Angeles Center
12:12PM 33.6414 -117.2592 90° East 483 556 29,500 2,081 Climbing Los Angeles Center
12:14PM 33.6386 -117.0603 91° East 493 567 31,700 1,984 Climbing Los Angeles Center
12:15PM 33.6375 -116.8911 90° East 505 581 33,600 1,920 Climbing Los Angeles Center
12:16PM 33.6353 -116.7086 91° East 509 586 35,700 1,728 Climbing Los Angeles Center
12:17PM 33.6328 -116.5403 91° East 508 585 37,200 1,355 Climbing Los Angeles Center
12:18PM 33.6478 -116.3742 84° East 504 580 38,500 871 Climbing Los Angeles Center
12:19PM 33.6653 -116.2092 83° East 501 577 39,000 242 Climbing Los Angeles Center
12:20PM 33.6822 -116.0378 83° East 507 583 39,000  Level Los Angeles Center
12:21PM 33.7025 -115.8714 82° East 507 583 39,000  Level Los Angeles Center
12:22PM 33.7219 -115.7036 82° East 507 583 39,000  Level Los Angeles Center
12:23PM 33.7431 -115.4986 83° East 509 586 39,000  Level Los Angeles Center
12:24PM 33.7606 -115.3283 83° East 514 592 39,000  Level Los Angeles Center
12:25PM 33.7806 -115.1611 82° East 509 586 39,000  Level Los Angeles Center
12:26PM 33.7969 -114.9917 83° East 509 586 39,000  Level Los Angeles Center
12:27PM 33.8172 -114.8233 82° East 509 586 39,000  Level Los Angeles Center
12:28PM 33.8333 -114.6558 83° East 508 585 39,000  Level Los Angeles Center
12:29PM 33.8575 -114.4525 82° East 510 587 39,000  Level Los Angeles Center
12:30PM 33.8736 -114.2836 83° East 511 588 39,000  Level Los Angeles Center
12:31PM 33.8911 -114.1142 83° East 510 587 39,000  Level Los Angeles Center
12:32PM 33.9072 -113.9453 83° East 510 587 39,000  Level Los Angeles Center
12:33PM 33.9231 -113.7764 84° East 508 585 39,000  Level Los Angeles Center
12:34PM 33.9428 -113.5875 83° East 513 590 39,000  Level Los Angeles Center
12:35PM 33.9589 -113.4161 83° East 518 596 39,000  Level Los Angeles Center
12:37PM 33.9822 -113.1683 83° East 512 589 39,000  Level Albuquerque Center
12:38PM 33.9972 -112.9983 84° East 512 589 39,000  Level Albuquerque Center
12:39PM 34.0156 -112.7942 84° East 512 589 39,000  Level Albuquerque Center
12:40PM 34.0303 -112.6244 84° East 512 589 39,000  Level Albuquerque Center
12:41PM 34.0461 -112.4556 83° East 511 588 39,000  Level Albuquerque Center
12:42PM 34.0597 -112.2850 84° East 510 587 39,000  Level Albuquerque Center
12:43PM 34.0742 -112.1144 84° East 510 587 39,000  Level Albuquerque Center
12:44PM 34.0903 -111.9119 84° East 510 587 39,000  Level Albuquerque Center
12:45PM 34.1039 -111.7425 84° East 510 587 39,000  Level Albuquerque Center
12:46PM 34.1164 -111.5942 84° East 510 587 39,000  Level Albuquerque Center
12:47PM 34.1331 -111.3881 84° East 511 588 39,000  Level Albuquerque Center
12:48PM 34.1469 -111.2175 84° East 511 588 39,000  Level Albuquerque Center
12:49PM 34.1589 -111.0458 85° East 511 588 39,000  Level Albuquerque Center
12:50PM 34.1711 -110.8744 85° East 511 588 39,000  Level Albuquerque Center
12:51PM 34.1869 -110.6772 84° East 511 588 39,000  Level Albuquerque Center
12:52PM 34.1981 -110.5067 85° East 512 589 39,000  Level Albuquerque Center
12:53PM 34.2106 -110.3361 85° East 512 589 39,000  Level Albuquerque Center
12:54PM 34.2217 -110.1661 85° East 511 588 39,000  Level Albuquerque Center
12:55PM 34.2328 -109.9956 85° East 511 588 39,000  Level Albuquerque Center
12:56PM 34.2447 -109.8242 85° East 511 588 39,000  Level Albuquerque Center
12:57PM 34.2581 -109.6186 85° East 511 588 39,000  Level Albuquerque Center
12:58PM 34.2683 -109.4469 86° East 511 588 39,000  Level Albuquerque Center
01:00PM 34.2794 -109.2761 85° East 511 588 39,000  Level Albuquerque Center
01:01PM 34.2894 -109.1061 86° East 511 588 39,000  Level Albuquerque Center
01:02PM 34.2997 -108.9347 86° East 510 587 39,000  Level Albuquerque Center
01:03PM 34.3086 -108.7650 86° East 510 587 39,000  Level Albuquerque Center
01:04PM 34.3189 -108.5933 86° East 510 587 39,000  Level Albuquerque Center
01:05PM 34.3294 -108.4014 86° East 510 587 39,000  Level Albuquerque Center
01:06PM 34.3378 -108.2300 87° East 510 587 39,000  Level Albuquerque Center
01:07PM 34.3461 -108.0583 87° East 510 587 39,000  Level Albuquerque Center
01:08PM 34.3558 -107.8517 87° East 511 588 39,000  Level Albuquerque Center
01:09PM 34.3647 -107.6803 86° East 511 588 39,000  Level Albuquerque Center
01:10PM 34.3722 -107.5072 87° East 515 593 39,000  Level Albuquerque Center
01:11PM 34.3803 -107.3356 87° East 515 593 39,000  Level Albuquerque Center
01:12PM 34.3897 -107.1417 87° East 515 593 39,000  Level Albuquerque Center
01:13PM 34.3981 -106.9564 87° East 515 593 39,000  Level Albuquerque Center
01:14PM 34.4044 -106.7833 87° East 515 593 39,000  Level Albuquerque Center
01:15PM 34.4111 -106.5975 87° East 515 593 39,000  Level Albuquerque Center
01:16PM 34.4164 -106.4422 88° East 516 594 39,000  Level Albuquerque Center
01:17PM 34.4231 -106.2658 87° East 516 594 39,000  Level Albuquerque Center
01:18PM 34.4297 -106.0664 88° East 510 587 39,000  Level Albuquerque Center
01:19PM 34.4356 -105.8931 88° East 510 587 39,000  Level Albuquerque Center
01:20PM 34.4403 -105.7214 88° East 510 587 39,000  Level Albuquerque Center
01:21PM 34.4456 -105.5497 88° East 509 586 39,000  Level Albuquerque Center
01:22PM 34.4503 -105.3753 88° East 510 587 39,000  Level Albuquerque Center
01:23PM 34.4553 -105.2022 88° East 510 587 39,000  Level Albuquerque Center
01:24PM 34.4611 -104.9989 88° East 511 588 39,000  Level Albuquerque Center
01:25PM 34.4644 -104.8225 89° East 514 592 39,000  Level Albuquerque Center
01:26PM 34.4678 -104.6467 89° East 517 595 39,000  Level Albuquerque Center
01:27PM 34.4725 -104.4700 88° East 518 596 39,000  Level Albuquerque Center
01:29PM 34.4767 -104.2922 88° East 524 603 39,000  Level Albuquerque Center
01:30PM 34.4803 -104.0825 89° East 527 606 39,000  Level Albuquerque Center
01:31PM 34.4836 -103.9047 89° East 527 606 39,000  Level Albuquerque Center
01:32PM 34.4867 -103.7269 89° East 527 606 39,000  Level Albuquerque Center
01:33PM 34.4875 -103.5469 90° East 530 610 39,000  Level Albuquerque Center
01:34PM 34.4903 -103.3675 89° East 530 610 39,000  Level Albuquerque Center
01:35PM 34.4922 -103.1878 89° East 530 610 39,000  Level Albuquerque Center
01:36PM 34.4933 -102.9828 90° East 530 610 39,000  Level Albuquerque Center
01:37PM 34.4919 -102.7983 90° East 530 610 39,000  Level Albuquerque Center
01:38PM 34.4742 -102.6272 97° East 533 613 39,000  Level Albuquerque Center
01:39PM 34.4550 -102.4519 98° East 533 613 39,000  Level Albuquerque Center
01:40PM 34.4358 -102.2753 97° East 533 613 39,000  Level Albuquerque Center
01:41PM 34.4142 -102.0678 97° East 528 608 39,000  Level Albuquerque Center
01:42PM 34.3956 -101.8944 97° East 527 606 39,000  Level Albuquerque Center
01:43PM 34.3764 -101.7206 98° East 526 605 39,000  Level Albuquerque Center
01:44PM 34.3611 -101.5819 98° East 526 605 39,000  Level Fort Worth Center
01:45PM 34.3411 -101.4064 98° East 526 605 39,000  Level Fort Worth Center
01:46PM 34.3225 -101.2317 97° East 526 605 39,000  Level Fort Worth Center
01:47PM 34.3031 -101.0561 98° East 527 606 39,000  Level Fort Worth Center
01:48PM 34.2814 -100.8817 99° East 527 606 39,000  Level Fort Worth Center
01:49PM 34.2553 -100.6714 98° East 528 608 39,000  Level Fort Worth Center
01:50PM 34.2344 -100.4950 98° East 529 609 39,000  Level Fort Worth Center
01:51PM 34.2097 -100.3058 99° East 530 610 39,000  Level Fort Worth Center
01:52PM 34.1717 -100.1342 105° East 531 611 39,000  Level Fort Worth Center
01:53PM 34.1286 -99.9639 107° East 531 611 39,000  Level Fort Worth Center
01:54PM 34.0833 -99.7939 108° East 531 611 39,000 -387 Level Fort Worth Center
01:55PM 34.0386 -99.6258 108° East 530 610 38,200 -1,548 Descending Fort Worth Center
01:56PM 33.9858 -99.4322 108° East 512 589 35,800 -2,565 Descending Fort Worth Center
01:57PM 33.9433 -99.2725 108° East 503 579 32,900 -2,661 Descending Fort Worth Center
01:58PM 33.8994 -99.1144 108° East 501 577 30,300 -2,274 Descending Fort Worth Center
01:59PM 33.8500 -98.9422 109° East 485 558 28,200 -2,112 Descending Fort Worth Center
02:00PM 33.8125 -98.8050 108° East 469 540 25,900 -2,016 Descending Fort Worth Center
02:01PM 33.7750 -98.6642 108° East 457 526 24,000 -919 Descending Fort Worth Center
02:02PM 33.7364 -98.5267 109° East 439 505 24,000 -290 Level Fort Worth Center
02:03PM 33.6892 -98.3581 109° East 459 528 23,400 -1,500 Descending Fort Worth Center
02:04PM 33.6467 -98.2072 109° East 457 526 20,900 -3,000 Descending Fort Worth Center
02:06PM 33.5886 -98.0875 120° Southeast 435 501 17,200 -3,339 Descending Fort Worth Center
02:07PM 33.5244 -97.9517 120° Southeast 415 478 14,000 -2,323 Descending Fort Worth Center
02:08PM 33.4769 -97.8433 118° Southeast 363 418 12,400 -1,680 Descending Fort Worth Center
02:09PM 33.4333 -97.7519 120° Southeast 322 371 10,500 -1,824 Descending Fort Worth Center
02:10PM 33.3950 -97.6656 118° Southeast 292 336 8,600 -2,129 Descending Fort Worth Center
02:11PM 33.3539 -97.5764 119° Southeast 286 329 6,100 -1,742 Descending Fort Worth Center
02:12PM 33.3061 -97.4994 127° Southeast 269 310 5,000 -532 Descending Fort Worth Center
02:13PM 33.2522 -97.4378 136° Southeast 268 308 5,000 -290 Level Fort Worth Center
02:14PM 33.1944 -97.3786 139° Southeast 269 310 4,400 -484 Descending Fort Worth Center
02:15PM 33.1367 -97.3183 139° Southeast 258 297 4,000 -532 Descending Fort Worth Center
02:16PM 33.0864 -97.2661 139° Southeast 245 282 3,300 -435 Descending Fort Worth Center
02:17PM 33.0367 -97.2153 139° Southeast 218 251 3,100 -240 Descending Fort Worth Center
02:18PM 32.9950 -97.1719 139° Southeast 202 232 2,800 -576 Descending Fort Worth Center
02:19PM 32.9572 -97.1333 139° Southeast 181 208 1,900 -823 Descending Fort Worth Center
02:20PM 32.9247 -97.0994 139° Southeast 147 169 1,100 -532 Descending Fort Worth Center
02:21PM 32.8978 -97.0697 137° Southeast 147 169 800 -242 Descending Fort Worth Center
02:22PM 32.8881 -97.0606 142° Southeast 137 158 600 -194 Descending Fort Worth Center